createdAt,value
2018-05-03T00:05:25.781Z,8.67
2018-05-03T00:14:18.232Z,7.27
2018-05-03T00:20:04.580Z,7.67
2018-05-03T00:22:37.501Z,7.23
2018-05-03T00:28:20.030Z,7.87
2018-05-03T00:40:04.736Z,7.10
2018-05-03T00:52:12.480Z,7.63
2018-05-03T01:04:14.539Z,8.07
2018-05-03T01:06:46.449Z,8.13
2018-05-03T01:19:07.703Z,8.30
2018-05-03T01:21:40.264Z,8.13
2018-05-03T01:24:16.223Z,8.93
2018-05-03T01:26:54.744Z,8.40
2018-05-03T01:29:48.965Z,7.47
2018-05-03T01:32:23.726Z,9.00
2018-05-03T01:57:39.548Z,9.77
2018-05-03T02:00:15.964Z,10.03
2018-05-03T03:50:28.700Z,8.10
2018-05-03T04:30:40.981Z,6.87
2018-05-03T04:58:28.067Z,5.97
2018-05-03T05:00:58.153Z,6.50
2018-05-03T05:03:28.436Z,5.47
2018-05-03T05:09:10.304Z,5.67
2018-05-03T05:11:56.727Z,5.27
2018-05-03T05:17:37.454Z,5.10
2018-05-03T05:29:38.143Z,5.50
2018-05-03T05:32:25.994Z,6.50
2018-05-03T05:35:11.814Z,6.50
2018-05-03T05:38:10.839Z,5.83
2018-05-03T05:44:15.964Z,6.17
2018-05-03T05:52:58.818Z,6.93
2018-05-03T05:55:34.259Z,6.53
2018-05-03T06:01:26.974Z,6.70
2018-05-03T06:13:26.828Z,6.50
2018-05-03T06:31:40.545Z,8.37
2018-05-03T06:37:34.558Z,5.93
2018-05-03T06:40:04.765Z,6.20
2018-05-03T06:49:18.352Z,6.53
2018-05-03T06:54:30.088Z,6.33
2018-05-03T06:57:00.190Z,6.10
2018-05-03T06:59:30.297Z,6.43
2018-05-03T07:05:10.496Z,6.13
2018-05-03T07:07:59.090Z,5.77
2018-05-03T07:13:39.363Z,6.43
2018-05-03T07:22:38.023Z,5.50
2018-05-03T07:25:08.246Z,6.07
2018-05-03T07:27:38.551Z,5.73
2018-05-03T07:33:46.026Z,5.90
2018-05-03T07:48:54.503Z,5.80
2018-05-03T07:51:41.103Z,5.67
2018-05-03T07:54:11.502Z,5.57
2018-05-03T07:56:41.956Z,6.00
2018-05-03T07:59:13.065Z,6.17
2018-05-03T08:04:42.088Z,6.63
2018-05-03T08:10:34.488Z,6.27
2018-05-03T08:13:04.295Z,5.60
2018-05-03T08:15:59.774Z,5.90
2018-05-03T08:18:29.654Z,5.57
2018-05-03T08:21:22.336Z,5.63
2018-05-03T08:30:21.309Z,5.80
2018-05-03T08:33:05.856Z,5.70
2018-05-03T08:45:01.496Z,6.07
2018-05-03T08:47:31.601Z,6.60
2018-05-03T08:50:01.611Z,6.50
2018-05-03T08:52:31.848Z,6.80
2018-05-03T08:55:02.722Z,7.80
2018-05-03T08:57:33.055Z,6.70
2018-05-03T09:00:02.917Z,7.00
2018-05-03T09:02:33.266Z,6.47
2018-05-03T09:05:04.609Z,6.50
2018-05-03T09:07:34.868Z,6.83
2018-05-03T09:10:04.730Z,6.93
2018-05-03T09:12:34.712Z,6.53
2018-05-03T09:15:20.566Z,6.50
2018-05-03T09:17:51.431Z,7.60
2018-05-03T09:20:21.834Z,6.90
2018-05-03T09:22:52.538Z,7.37
2018-05-03T09:25:22.919Z,7.43
2018-05-03T09:27:53.036Z,7.53
2018-05-03T09:30:23.383Z,7.93
2018-05-03T09:32:53.664Z,7.63
2018-05-03T09:35:23.918Z,7.17
2018-05-03T09:37:55.230Z,7.83
2018-05-03T09:40:25.336Z,7.53
2018-05-03T09:42:55.866Z,8.23
2018-05-03T09:45:25.980Z,8.60
2018-05-03T09:47:55.796Z,7.37
2018-05-03T09:50:26.127Z,7.60
2018-05-03T09:52:56.239Z,7.27
2018-05-03T09:55:26.554Z,8.73
2018-05-03T09:57:56.656Z,8.47
2018-05-03T10:00:27.119Z,8.63
2018-05-03T10:02:57.203Z,8.30
2018-05-03T10:05:27.530Z,8.37
2018-05-03T10:07:57.853Z,8.87
2018-05-03T10:10:27.993Z,8.30
2018-05-03T10:12:58.787Z,8.87
2018-05-03T10:15:28.958Z,10.20
2018-05-03T10:17:58.877Z,8.47
2018-05-03T10:20:29.247Z,8.30
2018-05-03T10:22:59.826Z,9.00
2018-05-03T10:25:29.929Z,9.53
2018-05-03T10:28:00.289Z,8.83
2018-05-03T10:30:30.407Z,9.70
2018-05-03T10:33:00.891Z,8.80
2018-05-03T10:35:31.043Z,8.80
2018-05-03T10:38:01.444Z,9.47
2018-05-03T10:40:31.517Z,9.10
2018-05-03T10:43:03.500Z,8.87
2018-05-03T10:45:34.070Z,9.27
2018-05-03T10:48:05.125Z,9.07
2018-05-03T10:50:35.708Z,8.50
2018-05-03T10:53:20.603Z,9.17
2018-05-03T10:55:51.344Z,9.07
2018-05-03T10:58:21.555Z,9.70
2018-05-03T11:00:51.675Z,9.03
2018-05-03T11:03:21.780Z,9.03
2018-05-03T11:05:51.951Z,9.07
2018-05-03T11:08:22.816Z,9.27
2018-05-03T11:10:52.911Z,9.50
2018-05-03T11:13:23.624Z,9.00
2018-05-03T11:15:53.724Z,8.93
2018-05-03T11:18:23.830Z,8.63
2018-05-03T11:20:54.220Z,8.67
2018-05-03T11:23:25.291Z,9.07
2018-05-03T11:25:55.333Z,9.27
2018-05-03T11:28:25.596Z,9.73
2018-05-03T11:30:55.684Z,9.37
2018-05-03T11:33:25.619Z,10.20
2018-05-03T11:35:55.728Z,9.63
2018-05-03T11:38:25.860Z,9.73
2018-05-03T11:40:55.953Z,9.07
2018-05-03T11:43:26.582Z,9.60
2018-05-03T11:45:57.254Z,9.63
2018-05-03T11:48:27.407Z,10.40
2018-05-03T11:50:58.435Z,9.47
2018-05-03T11:53:28.537Z,9.77
2018-05-03T11:55:58.800Z,9.97
2018-05-03T11:58:29.671Z,9.70
2018-05-03T12:01:00.075Z,9.90
2018-05-03T12:03:30.178Z,10.53
2018-05-03T12:06:00.314Z,10.63
2018-05-03T12:08:30.616Z,11.50
2018-05-03T12:11:01.021Z,11.53
2018-05-03T12:13:31.163Z,10.50
2018-05-03T12:16:01.436Z,10.57
2018-05-03T12:18:32.046Z,11.03
2018-05-03T12:21:02.171Z,10.80
2018-05-03T12:23:32.656Z,11.67
2018-05-03T12:26:03.391Z,11.00
2018-05-03T12:28:33.494Z,10.13
2018-05-03T12:31:03.669Z,12.23
2018-05-03T12:33:33.821Z,10.80
2018-05-03T12:36:04.037Z,13.40
2018-05-03T12:38:34.120Z,11.33
2018-05-03T12:41:04.264Z,11.97
2018-05-03T12:43:34.388Z,10.73
2018-05-03T12:46:04.147Z,10.70
2018-05-03T12:48:34.255Z,11.37
2018-05-03T12:51:04.939Z,12.15
2018-05-03T12:53:35.981Z,11.48
2018-05-03T12:56:06.238Z,11.00
2018-05-03T12:58:36.363Z,11.77
2018-05-03T13:01:06.456Z,10.70
2018-05-03T13:03:36.553Z,10.50
2018-05-03T13:06:07.155Z,10.37
2018-05-03T13:08:37.041Z,9.90
2018-05-03T13:11:07.143Z,10.50
2018-05-03T13:13:37.249Z,10.67
2018-05-03T13:16:07.019Z,9.73
2018-05-03T13:18:37.948Z,10.63
2018-05-03T13:21:08.823Z,10.17
2018-05-03T13:23:38.917Z,9.13
2018-05-03T13:26:09.032Z,8.70
2018-05-03T13:28:39.164Z,8.53
2018-05-03T13:31:09.459Z,9.13
2018-05-03T13:33:39.847Z,8.23
2018-05-03T13:36:10.511Z,6.95
2018-05-03T13:38:40.880Z,7.93
2018-05-03T13:41:11.406Z,9.50
2018-05-03T13:43:41.868Z,9.05
2018-05-03T13:46:12.539Z,9.15
2018-05-03T13:48:43.348Z,7.95
2018-05-03T13:51:13.462Z,9.13
2018-05-03T13:53:44.204Z,7.95
2018-05-03T13:56:15.021Z,10.52
2018-05-03T13:58:45.321Z,9.37
2018-05-03T14:01:17.297Z,8.27
2018-05-03T14:03:47.410Z,7.27
2018-05-03T14:06:17.495Z,8.37
2018-05-03T14:08:47.887Z,7.80
2018-05-03T14:11:18.096Z,8.53
2018-05-03T14:13:49.169Z,7.63
2018-05-03T14:16:19.341Z,8.30
2018-05-03T14:18:49.504Z,8.03
2018-05-03T14:21:20.177Z,8.18
2018-05-03T14:23:50.580Z,8.10
2018-05-03T14:26:21.011Z,7.55
2018-05-03T14:28:51.142Z,8.00
2018-05-03T14:31:22.034Z,8.20
2018-05-03T14:33:52.163Z,8.53
2018-05-03T14:36:22.806Z,7.37
2018-05-03T14:38:53.648Z,7.20
2018-05-03T14:41:24.358Z,8.07
2018-05-03T14:43:55.480Z,7.28
2018-05-03T14:46:25.670Z,8.10
2018-05-03T14:48:55.962Z,7.57
2018-05-03T14:51:26.107Z,7.50
2018-05-03T14:53:56.253Z,7.80
2018-05-03T14:56:27.178Z,7.83
2018-05-03T14:58:57.278Z,7.13
2018-05-03T15:01:30.692Z,7.17
2018-05-03T15:04:00.780Z,7.20
2018-05-03T15:06:30.949Z,7.90
2018-05-03T15:09:01.315Z,7.93
2018-05-03T15:11:31.434Z,7.23
2018-05-03T15:14:02.585Z,7.43
2018-05-03T15:16:35.296Z,6.60
2018-05-03T15:19:05.671Z,7.00
2018-05-03T15:21:35.739Z,7.43
2018-05-03T15:24:05.513Z,6.73
2018-05-03T15:26:37.694Z,7.40
2018-05-03T15:29:07.784Z,6.67
2018-05-03T15:31:37.896Z,6.57
2018-05-03T15:34:08.760Z,6.63
2018-05-03T15:36:38.850Z,7.13
2018-05-03T15:39:08.614Z,7.33
2018-05-03T15:44:59.930Z,6.90
2018-05-03T15:47:30.925Z,6.07
2018-05-03T15:50:01.099Z,6.80
2018-05-03T15:52:31.320Z,6.57
2018-05-03T15:55:01.762Z,6.30
2018-05-03T15:57:32.770Z,6.40
2018-05-03T16:00:02.662Z,5.93
2018-05-03T16:02:32.541Z,6.43
2018-05-03T16:05:04.148Z,6.70
2018-05-03T16:07:34.542Z,6.67
2018-05-03T16:10:04.507Z,6.10
2018-05-03T16:12:35.754Z,6.00
2018-05-03T16:15:05.219Z,5.80
2018-05-03T16:17:35.600Z,6.60
2018-05-03T16:20:05.960Z,5.93
2018-05-03T16:22:36.827Z,5.93
2018-05-03T16:25:07.917Z,6.40
2018-05-03T16:27:37.789Z,6.57
2018-05-03T16:30:08.197Z,6.83
2018-05-03T16:32:39.055Z,6.27
2018-05-03T16:35:12.142Z,7.03
2018-05-03T16:37:42.562Z,6.50
2018-05-03T16:40:19.811Z,7.07
2018-05-03T16:42:49.887Z,6.13
2018-05-03T16:45:20.403Z,6.13
2018-05-03T16:47:50.504Z,5.53
2018-05-03T17:53:32.724Z,6.73
2018-05-03T17:56:03.151Z,6.07
2018-05-03T18:02:04.615Z,6.67
2018-05-03T18:04:51.227Z,6.23
2018-05-03T18:13:35.904Z,6.03
2018-05-03T18:16:25.228Z,6.20
2018-05-03T18:22:26.585Z,6.47
2018-05-03T18:25:08.831Z,6.40
2018-05-03T18:28:01.037Z,6.03
2018-05-03T18:30:34.022Z,6.47
2018-05-03T18:33:27.073Z,5.80
2018-05-03T18:35:57.207Z,6.30
2018-05-03T18:38:53.045Z,7.10
2018-05-03T18:41:50.495Z,6.40
2018-05-03T18:44:38.293Z,5.87
2018-05-03T18:47:27.593Z,6.37
2018-05-03T18:50:04.357Z,7.10
2018-05-03T19:01:56.394Z,6.27
2018-05-03T19:04:51.688Z,6.43
2018-05-03T19:10:17.468Z,5.60
2018-05-03T19:12:57.988Z,6.17
2018-05-03T19:15:28.309Z,6.10
2018-05-03T19:18:03.077Z,6.30
2018-05-03T19:20:59.203Z,6.10
2018-05-03T19:23:29.340Z,6.27
2018-05-03T19:26:11.473Z,5.90
2018-05-03T19:28:54.543Z,6.10
2018-05-03T19:34:54.985Z,5.93
2018-05-03T19:37:43.499Z,5.80
2018-05-03T19:40:15.994Z,6.27
2018-05-03T19:42:54.008Z,6.27
2018-05-03T19:45:28.355Z,6.37
2018-05-03T19:54:10.133Z,6.57
2018-05-03T20:00:11.913Z,5.80
2018-05-03T20:03:01.850Z,5.40
2018-05-03T20:08:57.924Z,6.03
2018-05-03T20:11:40.369Z,5.83
2018-05-03T20:14:23.021Z,5.57
2018-05-03T20:23:00.810Z,5.70
2018-05-03T20:25:30.949Z,5.70
2018-05-03T20:28:01.951Z,5.90
2018-05-03T20:30:32.877Z,5.73
2018-05-03T20:35:48.023Z,5.37
2018-05-03T20:38:19.204Z,5.10
2018-05-03T20:40:49.336Z,5.27
2018-05-03T20:43:35.294Z,5.77
2018-05-03T20:46:05.896Z,5.37
2018-05-03T20:48:36.905Z,5.80
2018-05-03T20:51:06.962Z,5.73
2018-05-03T20:53:37.122Z,5.67
2018-05-03T20:56:07.228Z,5.40
2018-05-03T20:58:38.407Z,5.67
2018-05-03T21:01:22.486Z,4.73
2018-05-03T21:03:52.597Z,5.50
2018-05-03T21:06:22.722Z,5.20
2018-05-03T21:08:53.586Z,5.57
2018-05-03T21:11:25.246Z,5.30
2018-05-03T21:14:02.418Z,5.70
2018-05-03T21:16:32.645Z,5.83
2018-05-03T21:19:03.485Z,5.83
2018-05-03T21:21:39.497Z,4.37
2018-05-03T21:24:12.801Z,5.77
2018-05-03T21:26:43.050Z,5.03
2018-05-03T21:29:13.899Z,5.50
2018-05-03T21:31:45.679Z,5.50
2018-05-03T21:34:16.092Z,5.30
2018-05-03T21:36:45.961Z,6.00
2018-05-03T21:39:22.186Z,5.20
2018-05-03T21:44:54.021Z,5.53
2018-05-03T21:47:24.330Z,5.33
2018-05-03T21:49:54.747Z,5.50
2018-05-03T21:52:25.763Z,4.97
2018-05-03T21:54:57.933Z,5.70
2018-05-03T21:57:28.034Z,5.20
2018-05-03T21:59:58.184Z,5.47
2018-05-03T22:02:28.455Z,5.43
2018-05-03T22:04:59.309Z,5.50
2018-05-03T22:07:29.818Z,5.20
2018-05-03T22:09:59.909Z,5.20
2018-05-03T22:12:31.501Z,5.77
2018-05-03T22:15:01.682Z,5.10
2018-05-03T22:17:31.765Z,5.37
2018-05-03T22:20:03.841Z,5.50
2018-05-03T22:22:33.975Z,5.33
2018-05-03T22:25:03.739Z,5.70
2018-05-03T22:27:38.293Z,5.67
2018-05-03T22:30:08.371Z,6.30
2018-05-03T22:32:38.489Z,5.63
2018-05-03T22:35:09.368Z,5.80
2018-05-03T22:37:39.469Z,5.57
2018-05-03T22:40:09.552Z,5.30
2018-05-03T22:42:41.151Z,5.53
2018-05-03T22:45:11.385Z,5.60
2018-05-03T22:47:41.532Z,5.73
2018-05-03T22:50:11.619Z,5.83
2018-05-03T22:52:41.714Z,5.77
2018-05-03T22:55:12.633Z,5.80
2018-05-03T22:57:42.920Z,6.03
2018-05-03T23:00:13.709Z,6.10
2018-05-03T23:02:43.795Z,6.20
2018-05-03T23:05:14.148Z,5.83
2018-05-03T23:07:44.281Z,5.47
2018-05-03T23:10:19.355Z,5.80
2018-05-03T23:12:49.646Z,5.90
2018-05-03T23:15:22.365Z,6.17
2018-05-03T23:17:53.211Z,6.17
2018-05-03T23:20:23.308Z,5.77
2018-05-03T23:22:53.480Z,5.93
2018-05-03T23:28:20.578Z,7.03
2018-05-03T23:30:50.714Z,6.57
2018-05-03T23:33:21.020Z,6.47
2018-05-03T23:38:49.561Z,6.40
2018-05-03T23:41:37.350Z,6.80
2018-05-03T23:44:07.843Z,7.17
2018-05-03T23:46:38.223Z,6.10
2018-05-03T23:49:09.089Z,6.70
2018-05-03T23:51:39.979Z,6.77
2018-05-03T23:54:12.567Z,7.30
2018-05-03T23:56:43.407Z,6.97
2018-05-03T23:59:14.291Z,7.23
